Time;durP1;ratioP1;P1;durP2;ratioP2;P2;SDS_P1;SDS_P2;PMS_P1;PMS_P2;Temp;Humidity;BMP_temperature;BMP_pressure;BME280_temperature;BME280_humidity;BME280_pressure;Samples;Min_cycle;Max_cycle;Signal;HPM_P1;HPM_P2
2023/10/08 00:01:55;;;;;;;;;;;;;;;-144.99;100.00;52509.25;5060505;28;19954;-65
2023/10/08 00:04:24;;;;;;;;;;;;;;;-144.99;100.00;52550.00;5071522;28;20055;-65
2023/10/08 00:06:52;;;;;;;;;;;;;;;-144.99;100.00;52513.31;5069762;28;20479;-65
2023/10/08 00:09:20;;;;;;;;;;;;;;;-144.99;100.00;52497.00;5059724;28;20183;-65
2023/10/08 00:11:51;;;;;;;;;;;;;;;-144.99;100.00;52517.41;5060171;28;20352;-64
2023/10/08 00:14:21;;;;;;;;;;;;;;;-144.99;100.00;52511.28;5068925;28;19944;-63
2023/10/08 00:16:49;;;;;;;;;;;;;;;-144.99;100.00;52576.50;5077031;28;19975;-64
2023/10/08 00:19:18;;;;;;;;;;;;;;;-144.99;100.00;52521.47;5061905;28;19942;-65
2023/10/08 00:21:48;;;;;;;;;;;;;;;-144.99;100.00;52517.41;5057424;28;19965;-68
2023/10/08 00:24:15;;;;;;;;;;;;;;;-144.99;100.00;52550.00;5050887;28;20043;-67
2023/10/08 00:26:41;;;;;;;;;;;;;;;-144.99;100.00;52558.16;5051362;28;19933;-65
2023/10/08 00:29:15;;;;;;;;;;;;;;;-144.99;100.00;52509.25;5053462;28;19944;-65
2023/10/08 00:31:44;;;;;;;;;;;;;;;-144.99;100.00;52539.81;5052569;28;20233;-65
2023/10/08 00:34:11;;;;;;;;;;;;;;;-144.99;100.00;52521.47;5051989;28;19939;-63
2023/10/08 00:36:38;;;;;;;;;;;;;;;-144.99;100.00;52505.16;5050960;28;20380;-64
2023/10/08 00:39:13;;;;;;;;;;;;;;;-144.99;100.00;52529.63;5052075;28;20407;-63
2023/10/08 00:41:39;;;;;;;;;;;;;;;-144.99;100.00;52497.00;5053253;28;20475;-65
2023/10/08 00:44:08;;;;;;;;;;;;;;;-144.99;100.00;52525.56;5052196;28;19956;-63
2023/10/08 00:46:42;;;;;;;;;;;;;;;-144.99;100.00;52517.41;5052877;28;19949;-63
2023/10/08 00:49:24;;;;;;;;;;;;;;;-144.99;100.00;52527.59;5052497;28;20758;-66
2023/10/08 00:52:00;;;;;;;;;;;;;;;-144.99;100.00;52509.25;5052626;28;19949;-63
2023/10/08 00:54:32;;;;;;;;;;;;;;;-144.99;100.00;52525.56;5052657;28;20027;-71
2023/10/08 00:57:03;;;;;;;;;;;;;;;-144.99;100.00;52507.19;5056522;28;19946;-71
2023/10/08 00:59:33;;;;;;;;;;;;;;;-144.99;100.00;52505.16;5054415;28;20046;-67
2023/10/08 01:02:06;;;;;;;;;;;;;;;-144.99;100.00;52509.25;5051619;28;19949;-69
2023/10/08 01:04:34;;;;;;;;;;;;;;;-144.99;100.00;52517.41;5051632;28;19956;-69
2023/10/08 01:07:01;;;;;;;;;;;;;;;-144.99;100.00;52550.00;5051697;28;19943;-68
2023/10/08 01:09:31;;;;;;;;;;;;;;;-144.99;100.00;52533.69;5051046;28;19961;-68
2023/10/08 01:12:14;;;;;;;;;;;;;;;-144.99;100.00;52521.47;5053780;28;20419;-67
2023/10/08 01:14:43;;;;;;;;;;;;;;;-144.99;100.00;52566.31;5055906;28;20033;-67
2023/10/08 01:17:10;;;;;;;;;;;;;;;-144.99;100.00;52525.56;5050792;28;19945;-67
2023/10/08 01:19:40;;;;;;;;;;;;;;;-144.99;100.00;52525.56;5052258;28;19966;-68
2023/10/08 01:22:08;;;;;;;;;;;;;;;-144.99;100.00;52533.69;5058647;28;20054;-67
2023/10/08 01:24:45;;;;;;;;;;;;;;;-144.99;100.00;52539.81;5062112;28;10000225;-65
2023/10/08 01:27:12;;;;;;;;;;;;;;;-144.99;100.00;52529.63;5067751;28;19952;-64
2023/10/08 01:29:39;;;;;;;;;;;;;;;-144.99;100.00;52554.09;5067507;28;20017;-66
2023/10/08 01:32:09;;;;;;;;;;;;;;;-144.99;100.00;52488.84;5061483;28;20413;-64
2023/10/08 01:34:36;;;;;;;;;;;;;;;-144.99;100.00;52554.09;5064405;28;20021;-64
2023/10/08 01:37:08;;;;;;;;;;;;;;;-144.99;100.00;52505.16;5067120;28;19995;-64
2023/10/08 01:39:37;;;;;;;;;;;;;;;-144.99;100.00;52507.19;5065418;28;19990;-64
2023/10/08 01:42:05;;;;;;;;;;;;;;;-144.99;100.00;52517.41;5072196;28;19959;-60
2023/10/08 01:44:33;;;;;;;;;;;;;;;-144.99;100.00;52531.66;5067879;28;20419;-60
2023/10/08 01:47:04;;;;;;;;;;;;;;;-144.99;100.00;52521.47;5069472;28;19928;-60
2023/10/08 01:49:33;;;;;;;;;;;;;;;-144.99;100.00;52533.69;5066850;28;20051;-60
2023/10/08 01:52:07;;;;;;;;;;;;;;;-144.99;100.00;52537.78;5069374;28;19960;-61
2023/10/08 01:54:35;;;;;;;;;;;;;;;-144.99;100.00;52497.00;5056498;28;19942;-61
2023/10/08 01:57:03;;;;;;;;;;;;;;;-144.99;100.00;52515.34;5053322;28;21238;-60
2023/10/08 01:59:32;;;;;;;;;;;;;;;-144.99;100.00;52519.44;5051496;28;20153;-60
2023/10/08 02:01:58;;;;;;;;;;;;;;;-144.99;100.00;52539.81;5053735;28;19942;-60
2023/10/08 02:04:25;;;;;;;;;;;;;;;-144.99;100.00;52513.31;5051845;28;19955;-61
2023/10/08 02:06:51;;;;;;;;;;;;;;;-144.99;100.00;52515.34;5052103;28;19975;-61
2023/10/08 02:09:25;;;;;;;;;;;;;;;-144.99;100.00;52566.31;5053390;28;21721;-61
2023/10/08 02:11:53;;;;;;;;;;;;;;;-144.99;100.00;52517.41;5051186;28;20602;-61
2023/10/08 02:14:22;;;;;;;;;;;;;;;-144.99;100.00;52529.63;5050236;28;20067;-61
2023/10/08 02:16:49;;;;;;;;;;;;;;;-144.99;100.00;52525.56;5051592;28;20349;-63
2023/10/08 02:19:18;;;;;;;;;;;;;;;-144.99;100.00;52499.06;5051431;28;20308;-63
2023/10/08 02:21:46;;;;;;;;;;;;;;;-144.99;100.00;52554.09;5053972;28;19956;-63
2023/10/08 02:24:12;;;;;;;;;;;;;;;-144.99;100.00;52537.78;5051533;28;19998;-66
2023/10/08 02:26:39;;;;;;;;;;;;;;;-144.99;100.00;52541.84;5050983;28;20094;-66
2023/10/08 02:29:10;;;;;;;;;;;;;;;-144.99;100.00;52525.56;5052045;28;19958;-66
2023/10/08 02:31:38;;;;;;;;;;;;;;;-144.99;100.00;52558.16;5052574;28;19940;-61
2023/10/08 02:34:07;;;;;;;;;;;;;;;-144.99;100.00;52529.63;5052225;28;20045;-62
2023/10/08 02:36:36;;;;;;;;;;;;;;;-144.99;100.00;52525.56;5051609;28;19937;-61
2023/10/08 02:39:06;;;;;;;;;;;;;;;-144.99;100.00;52529.63;5060603;28;19937;-62
2023/10/08 02:41:32;;;;;;;;;;;;;;;-144.99;100.00;52521.47;5054255;28;20142;-62
2023/10/08 02:43:59;;;;;;;;;;;;;;;-144.99;100.00;52533.69;5049872;28;19968;-62
2023/10/08 02:46:26;;;;;;;;;;;;;;;-144.99;100.00;52537.78;5054083;28;19970;-62
2023/10/08 02:48:54;;;;;;;;;;;;;;;-144.99;100.00;52531.66;5063744;28;19929;-61
2023/10/08 02:51:21;;;;;;;;;;;;;;;-144.99;100.00;52552.03;5067487;28;20049;-61
2023/10/08 02:53:48;;;;;;;;;;;;;;;-144.99;100.00;52558.16;5053467;28;20376;-62
2023/10/08 02:56:15;;;;;;;;;;;;;;;-144.99;100.00;52550.00;5051974;28;20038;-62
2023/10/08 02:58:43;;;;;;;;;;;;;;;-144.99;100.00;52525.56;5052369;28;19936;-65
2023/10/08 03:01:12;;;;;;;;;;;;;;;-144.99;100.00;52554.09;5051895;28;20447;-64
2023/10/08 03:03:39;;;;;;;;;;;;;;;-144.99;100.00;52550.00;5052778;28;19982;-64
2023/10/08 03:06:11;;;;;;;;;;;;;;;-144.99;100.00;52550.00;5054981;28;19990;-69
2023/10/08 03:08:40;;;;;;;;;;;;;;;-144.99;100.00;52574.47;5054766;28;19929;-67
2023/10/08 03:11:07;;;;;;;;;;;;;;;-144.99;100.00;52537.78;5059893;28;19952;-68
2023/10/08 03:13:38;;;;;;;;;;;;;;;-144.99;100.00;52529.63;5053991;28;22371;-72
2023/10/08 03:16:09;;;;;;;;;;;;;;;-144.99;100.00;52560.19;5055288;28;19940;-68
2023/10/08 03:18:36;;;;;;;;;;;;;;;-144.99;100.00;52537.78;5053752;28;20050;-71
2023/10/08 03:21:04;;;;;;;;;;;;;;;-144.99;100.00;52505.16;5052617;28;19956;-71
2023/10/08 03:23:34;;;;;;;;;;;;;;;-144.99;100.00;52586.69;5052862;28;19978;-64
2023/10/08 03:26:09;;;;;;;;;;;;;;;-144.99;100.00;52517.41;5052558;28;20027;-71
2023/10/08 03:28:36;;;;;;;;;;;;;;;-144.99;100.00;52533.69;5052957;28;19981;-66
2023/10/08 03:31:04;;;;;;;;;;;;;;;-144.99;100.00;52545.94;5052940;28;19959;-65
2023/10/08 03:33:34;;;;;;;;;;;;;;;-144.99;100.00;52570.38;5053615;28;19925;-65
2023/10/08 03:36:08;;;;;;;;;;;;;;;-144.99;100.00;52533.69;5057597;28;19992;-64
2023/10/08 03:38:50;;;;;;;;;;;;;;;-144.99;100.00;52523.50;5055435;28;19948;-65
2023/10/08 03:41:17;;;;;;;;;;;;;;;-144.99;100.00;52541.84;5059464;28;19932;-71
2023/10/08 03:43:52;;;;;;;;;;;;;;;-144.99;100.00;52537.78;5056230;28;19951;-69
2023/10/08 03:46:21;;;;;;;;;;;;;;;-144.99;100.00;52529.63;5056813;28;20527;-65
2023/10/08 03:48:47;;;;;;;;;;;;;;;-144.99;100.00;52550.00;5055417;28;19963;-67
2023/10/08 03:51:19;;;;;;;;;;;;;;;-144.99;100.00;52533.69;5052104;28;19972;-67
2023/10/08 03:53:58;;;;;;;;;;;;;;;-144.99;100.00;52550.00;5057061;28;19942;-65
2023/10/08 03:56:26;;;;;;;;;;;;;;;-144.99;100.00;52566.31;5056707;28;20053;-66
2023/10/08 03:58:54;;;;;;;;;;;;;;;-144.99;100.00;52550.00;5053894;28;19936;-67
2023/10/08 04:01:21;;;;;;;;;;;;;;;-144.99;100.00;52545.94;5054112;28;20231;-67
2023/10/08 04:03:58;;;;;;;;;;;;;;;-144.99;100.00;52537.78;5055181;28;19939;-70
2023/10/08 04:06:30;;;;;;;;;;;;;;;-144.99;100.00;52558.16;5057100;28;20012;-67
2023/10/08 04:09:16;;;;;;;;;;;;;;;-144.99;100.00;52537.78;5055729;28;19945;-66
2023/10/08 04:12:03;;;;;;;;;;;;;;;-144.99;100.00;52505.16;5055466;28;19931;-65
2023/10/08 04:14:30;;;;;;;;;;;;;;;-144.99;100.00;52521.47;5055758;28;20006;-66
2023/10/08 04:16:58;;;;;;;;;;;;;;;-144.99;100.00;52550.00;5054879;28;19928;-66
2023/10/08 04:19:26;;;;;;;;;;;;;;;-144.99;100.00;52509.25;5056999;28;19937;-65
2023/10/08 04:21:54;;;;;;;;;;;;;;;-144.99;100.00;52517.41;5054704;28;20051;-64
2023/10/08 04:24:29;;;;;;;;;;;;;;;-144.99;100.00;52533.69;5053666;28;19949;-65
2023/10/08 04:26:57;;;;;;;;;;;;;;;-144.99;100.00;52570.38;5057045;28;20704;-66
2023/10/08 04:29:24;;;;;;;;;;;;;;;-144.99;100.00;52590.78;5053015;28;19941;-64
2023/10/08 04:32:00;;;;;;;;;;;;;;;-144.99;100.00;52545.94;5052869;28;19945;-65
2023/10/08 04:34:28;;;;;;;;;;;;;;;-144.99;100.00;52529.63;5037421;28;19994;-66
2023/10/08 04:36:54;;;;;;;;;;;;;;;-144.99;100.00;52497.00;5054038;28;20043;-66
2023/10/08 04:39:26;;;;;;;;;;;;;;;-144.99;100.00;52533.69;5054943;28;19978;-66
2023/10/08 04:41:54;;;;;;;;;;;;;;;-144.99;100.00;52594.84;5053834;28;19955;-66
2023/10/08 04:44:21;;;;;;;;;;;;;;;-144.99;100.00;52562.25;5054496;28;19966;-67
2023/10/08 04:46:51;;;;;;;;;;;;;;;-144.99;100.00;52545.94;5054615;28;19958;-67
2023/10/08 04:49:27;;;;;;;;;;;;;;;-144.99;100.00;52545.94;5054511;28;19955;-68
2023/10/08 04:51:56;;;;;;;;;;;;;;;-144.99;100.00;52505.16;5055836;28;20249;-67
2023/10/08 04:54:29;;;;;;;;;;;;;;;-144.99;100.00;52570.38;5054743;28;19993;-69
2023/10/08 04:56:57;;;;;;;;;;;;;;;-144.99;100.00;52519.44;5053099;28;19949;-68
2023/10/08 04:59:32;;;;;;;;;;;;;;;-144.99;100.00;52586.69;5055927;28;20025;-62
2023/10/08 05:02:12;;;;;;;;;;;;;;;-144.99;100.00;52537.78;5052860;28;20461;-64
2023/10/08 05:04:55;;;;;;;;;;;;;;;-144.99;100.00;52578.53;5054550;28;19955;-66
2023/10/08 05:07:40;;;;;;;;;;;;;;;-144.99;100.00;52501.09;5051965;28;20070;-63
2023/10/08 05:10:18;;;;;;;;;;;;;;;-144.99;100.00;52558.16;5051807;28;19956;-64
2023/10/08 05:12:50;;;;;;;;;;;;;;;-144.99;100.00;52525.56;5053487;28;20310;-63
2023/10/08 05:15:32;;;;;;;;;;;;;;;-144.99;100.00;52531.66;5051757;28;19967;-63
2023/10/08 05:18:13;;;;;;;;;;;;;;;-144.99;100.00;52566.31;5052691;28;19928;-67
2023/10/08 05:20:58;;;;;;;;;;;;;;;-144.99;100.00;52547.97;5049909;28;21707;-69
2023/10/08 05:26:20;;;;;;;;;;;;;;;-144.99;100.00;52529.63;5047481;28;19957;-65
2023/10/08 05:28:47;;;;;;;;;;;;;;;-144.99;100.00;52582.63;5050901;28;19955;-66
2023/10/08 05:31:36;;;;;;;;;;;;;;;-144.99;100.00;52529.63;5048168;28;20085;-67
2023/10/08 05:34:14;;;;;;;;;;;;;;;-144.99;100.00;52586.69;5048961;28;19986;-65
2023/10/08 05:37:00;;;;;;;;;;;;;;;-144.99;100.00;52566.31;5049868;28;20004;-68
2023/10/08 05:39:29;;;;;;;;;;;;;;;-144.99;100.00;52554.09;5050437;28;20047;-71
2023/10/08 05:42:13;;;;;;;;;;;;;;;-144.99;100.00;52545.94;5051871;28;20051;-68
2023/10/08 05:44:39;;;;;;;;;;;;;;;-144.99;100.00;52529.63;5052032;28;19939;-71
2023/10/08 05:47:28;;;;;;;;;;;;;;;-144.99;100.00;52582.63;5050249;28;20296;-66
2023/10/08 05:50:18;;;;;;;;;;;;;;;-144.99;100.00;52539.81;5048719;28;20689;-70
2023/10/08 05:53:01;;;;;;;;;;;;;;;-144.99;100.00;52541.84;5050841;28;20326;-67
2023/10/08 05:55:33;;;;;;;;;;;;;;;-144.99;100.00;52541.84;5050209;28;20037;-69
2023/10/08 05:58:24;;;;;;;;;;;;;;;-144.99;100.00;52513.31;5053842;28;19962;-68
2023/10/08 06:03:36;;;;;;;;;;;;;;;-144.99;100.00;52562.25;5040263;28;19938;-67
2023/10/08 06:08:52;;;;;;;;;;;;;;;-144.99;100.00;52517.41;5052399;28;20466;-69
2023/10/08 06:11:30;;;;;;;;;;;;;;;-144.99;100.00;52490.91;5051678;28;20011;-68
2023/10/08 06:14:00;;;;;;;;;;;;;;;-144.99;100.00;52521.47;5052075;28;19943;-69
2023/10/08 06:16:31;;;;;;;;;;;;;;;-144.99;100.00;52509.25;5051042;28;19939;-70
2023/10/08 06:18:57;;;;;;;;;;;;;;;-144.99;100.00;52550.00;5048555;28;20293;-68
2023/10/08 06:21:23;;;;;;;;;;;;;;;-144.99;100.00;52531.66;5050752;28;19962;-67
2023/10/08 06:23:53;;;;;;;;;;;;;;;-144.99;100.00;52554.09;5049144;28;19949;-67
2023/10/08 06:26:24;;;;;;;;;;;;;;;-144.99;100.00;52550.00;5049070;28;19971;-67
2023/10/08 06:28:57;;;;;;;;;;;;;;;-144.99;100.00;52529.63;5047848;28;19963;-66
2023/10/08 06:31:26;;;;;;;;;;;;;;;-144.99;100.00;52537.78;5050883;28;19963;-66
2023/10/08 06:33:53;;;;;;;;;;;;;;;-144.99;100.00;52521.47;5049258;28;20043;-66
2023/10/08 06:36:24;;;;;;;;;;;;;;;-144.99;100.00;52511.28;5047929;28;19944;-67
2023/10/08 06:38:50;;;;;;;;;;;;;;;-144.99;100.00;52458.28;5049520;28;19933;-67
2023/10/08 06:41:17;;;;;;;;;;;;;;;-144.99;100.00;52488.84;5050407;28;20052;-66
2023/10/08 06:43:44;;;;;;;;;;;;;;;-144.99;100.00;52537.78;5050267;28;20318;-67
2023/10/08 06:46:12;;;;;;;;;;;;;;;-144.99;100.00;52509.25;5046979;28;20047;-64
2023/10/08 06:48:42;;;;;;;;;;;;;;;-144.99;100.00;52501.09;5051387;28;19995;-69
2023/10/08 06:51:12;;;;;;;;;;;;;;;-144.99;100.00;52511.28;5047416;28;19961;-66
2023/10/08 06:53:39;;;;;;;;;;;;;;;-144.99;100.00;52464.41;5048330;28;19943;-67
2023/10/08 06:56:06;;;;;;;;;;;;;;;-144.99;100.00;52468.47;5049104;28;19936;-67
2023/10/08 06:58:33;;;;;;;;;;;;;;;-144.99;100.00;52492.94;5048123;28;20044;-66
2023/10/08 07:01:04;;;;;;;;;;;;;;;-144.99;100.00;52492.94;5051053;28;19964;-64
2023/10/08 07:03:31;;;;;;;;;;;;;;;-144.99;100.00;52488.84;5050319;28;20031;-65
2023/10/08 07:05:59;;;;;;;;;;;;;;;-144.99;100.00;52472.56;5048242;28;20010;-66
2023/10/08 07:08:26;;;;;;;;;;;;;;;-144.99;100.00;52490.91;5055235;28;19949;-66
2023/10/08 07:10:56;;;;;;;;;;;;;;;-144.99;100.00;52446.06;5057005;28;19965;-68
2023/10/08 07:13:24;;;;;;;;;;;;;;;-144.99;100.00;52505.16;5054086;28;19943;-67
2023/10/08 07:15:51;;;;;;;;;;;;;;;-144.99;100.00;52484.78;5056143;28;20415;-67
2023/10/08 07:18:24;;;;;;;;;;;;;;;-144.99;100.00;52464.41;5054312;28;19941;-65
2023/10/08 07:20:53;;;;;;;;;;;;;;;-144.99;100.00;52470.50;5055416;28;19965;-66
2023/10/08 07:23:24;;;;;;;;;;;;;;;-144.99;100.00;52460.31;5055390;28;19936;-67
2023/10/08 07:25:58;;;;;;;;;;;;;;;-144.99;100.00;52444.03;5053572;28;20448;-67
2023/10/08 07:28:25;;;;;;;;;;;;;;;-144.99;99.41;52476.63;5054827;28;19945;-67
2023/10/08 07:30:52;;;;;;;;;;;;;;;-144.99;98.49;52470.50;5056246;28;19975;-66
2023/10/08 07:33:19;;;;;;;;;;;;;;;-144.99;98.02;52427.72;5060851;28;19940;-66
2023/10/08 07:35:56;;;;;;;;;;;;;;;-144.99;96.73;52444.03;5058453;28;19940;-69
2023/10/08 07:38:27;;;;;;;;;;;;;;;-144.99;95.91;52448.09;5052568;28;19946;-66
2023/10/08 07:40:54;;;;;;;;;;;;;;;-144.99;94.83;52441.97;5055155;28;19969;-66
2023/10/08 07:43:21;;;;;;;;;;;;;;;-144.99;93.93;52456.25;5054043;28;19945;-65
2023/10/08 07:45:47;;;;;;;;;;;;;;;-144.99;92.08;52456.25;5053105;28;19986;-67
2023/10/08 07:48:15;;;;;;;;;;;;;;;-144.99;91.07;52456.25;5053855;28;20039;-68
2023/10/08 07:50:42;;;;;;;;;;;;;;;-144.99;89.35;52399.19;5057520;28;20431;-67
2023/10/08 07:53:14;;;;;;;;;;;;;;;-144.99;88.00;52427.72;5056599;28;19988;-68
2023/10/08 07:55:42;;;;;;;;;;;;;;;-144.99;86.03;52419.56;5056041;28;19960;-68
2023/10/08 07:58:11;;;;;;;;;;;;;;;-144.99;84.50;52386.94;5058062;28;20014;-67
2023/10/08 08:00:38;;;;;;;;;;;;;;;-144.99;83.40;52431.78;5054355;28;20481;-67
2023/10/08 08:03:06;;;;;;;;;;;;;;;-144.99;81.75;52409.38;5059331;28;20651;-69
2023/10/08 08:05:33;;;;;;;;;;;;;;;-144.99;81.12;52399.19;5057643;28;20472;-69
2023/10/08 08:08:05;;;;;;;;;;;;;;;-144.99;79.64;52435.88;5058996;28;20407;-67
2023/10/08 08:10:36;;;;;;;;;;;;;;;-144.99;78.91;52427.72;5057812;28;19961;-69
2023/10/08 08:13:05;;;;;;;;;;;;;;;-144.99;77.79;52423.63;5056484;28;20204;-68
2023/10/08 08:15:33;;;;;;;;;;;;;;;-144.99;75.97;52423.63;5056550;28;19985;-68
2023/10/08 08:18:00;;;;;;;;;;;;;;;-144.99;75.12;52444.03;5055582;28;20297;-68
2023/10/08 08:20:34;;;;;;;;;;;;;;;-144.99;74.62;52429.75;5052334;28;20049;-69
2023/10/08 08:23:06;;;;;;;;;;;;;;;-144.99;74.02;52456.25;5052741;28;19944;-68
2023/10/08 08:25:43;;;;;;;;;;;;;;;-144.99;72.63;52435.88;5054255;28;20172;-67
2023/10/08 08:28:16;;;;;;;;;;;;;;;-144.99;71.77;52444.03;5052880;28;19937;-67
2023/10/08 08:30:46;;;;;;;;;;;;;;;-144.99;70.98;52411.41;5040207;28;19963;-67
2023/10/08 08:33:14;;;;;;;;;;;;;;;-144.99;69.85;52413.44;5052570;28;20416;-68
2023/10/08 08:35:40;;;;;;;;;;;;;;;-144.99;69.74;52409.38;5054879;28;19946;-69
2023/10/08 08:38:08;;;;;;;;;;;;;;;-144.99;69.25;52411.41;5057255;28;20462;-68
2023/10/08 08:40:35;;;;;;;;;;;;;;;-144.99;69.07;52391.03;5054995;28;19980;-67
2023/10/08 08:43:04;;;;;;;;;;;;;;;-144.99;68.34;52391.03;5054070;28;19945;-67
2023/10/08 08:45:33;;;;;;;;;;;;;;;-144.99;66.88;52419.56;5052204;28;19942;-69
2023/10/08 08:47:59;;;;;;;;;;;;;;;-144.99;66.41;52378.78;5053762;28;19970;-68
2023/10/08 08:50:26;;;;;;;;;;;;;;;-144.99;65.27;52415.47;5050116;28;20401;-68
2023/10/08 08:52:53;;;;;;;;;;;;;;;-144.99;65.21;52407.31;5051284;28;19967;-69
2023/10/08 08:55:20;;;;;;;;;;;;;;;-144.99;64.83;52333.94;5053745;28;20045;-67
2023/10/08 08:57:47;;;;;;;;;;;;;;;-144.99;63.74;52358.41;5052745;28;20442;-68
2023/10/08 09:00:15;;;;;;;;;;;;;;;-144.99;63.14;52391.03;5052500;28;20046;-69
2023/10/08 09:02:44;;;;;;;;;;;;;;;-144.99;63.01;52386.94;5056323;28;19946;-69
2023/10/08 09:05:24;;;;;;;;;;;;;;;-144.99;62.08;52399.19;5054002;28;19991;-71
2023/10/08 09:07:55;;;;;;;;;;;;;;;-144.99;61.62;52374.72;5053964;28;19964;-70
2023/10/08 09:10:26;;;;;;;;;;;;;;;-144.99;60.99;52346.19;5056320;28;20036;-70
2023/10/08 09:12:53;;;;;;;;;;;;;;;-144.99;59.98;52380.84;5053497;28;20035;-72
2023/10/08 09:15:22;;;;;;;;;;;;;;;-144.99;60.14;52374.72;5056211;28;20409;-70
2023/10/08 09:17:51;;;;;;;;;;;;;;;-144.99;59.70;52370.63;5057325;28;19946;-69
2023/10/08 09:20:20;;;;;;;;;;;;;;;-144.99;58.59;52374.72;5068012;22;19963;-70
2023/10/08 09:22:47;;;;;;;;;;;;;;;-144.99;58.34;52346.19;4992426;28;20090;-71
2023/10/08 09:25:22;;;;;;;;;;;;;;;-144.99;57.15;52325.81;4994169;28;20026;-69
2023/10/08 09:27:52;;;;;;;;;;;;;;;-144.99;57.42;52350.25;4994944;28;19968;-69
2023/10/08 09:30:19;;;;;;;;;;;;;;;-144.99;57.01;52338.03;5000955;28;19962;-70
2023/10/08 09:32:45;;;;;;;;;;;;;;;-144.99;57.39;52362.50;5009571;28;20038;-69
2023/10/08 09:35:14;;;;;;;;;;;;;;;-144.99;56.48;52297.25;5014913;28;19948;-69
2023/10/08 09:37:41;;;;;;;;;;;;;;;-144.99;54.96;52317.66;5029080;28;20013;-69
2023/10/08 09:40:09;;;;;;;;;;;;;;;-144.99;54.69;52285.03;5033788;28;19959;-69
2023/10/08 09:42:38;;;;;;;;;;;;;;;-144.99;53.56;52272.81;5014606;28;20317;-70
2023/10/08 09:45:08;;;;;;;;;;;;;;;-144.99;53.16;52289.13;5010135;28;19950;-69
2023/10/08 09:47:37;;;;;;;;;;;;;;;-144.99;52.71;52283.00;5010413;28;20305;-69
2023/10/08 09:50:07;;;;;;;;;;;;;;;-144.99;51.75;52280.97;5012523;28;20057;-72
2023/10/08 09:52:38;;;;;;;;;;;;;;;-144.99;51.34;52264.66;5012225;28;20037;-72
2023/10/08 09:55:10;;;;;;;;;;;;;;;-144.99;50.38;52289.13;5011652;28;19954;-72
2023/10/08 09:57:36;;;;;;;;;;;;;;;-144.99;49.78;52252.44;5011618;28;20358;-72
2023/10/08 10:00:05;;;;;;;;;;;;;;;-144.99;49.80;52232.03;5015696;28;19958;-71
2023/10/08 10:02:33;;;;;;;;;;;;;;;-144.99;49.57;52203.50;5019252;28;19944;-71
2023/10/08 10:05:00;;;;;;;;;;;;;;;-144.99;49.38;52207.59;5018996;28;19948;-71
2023/10/08 10:07:28;;;;;;;;;;;;;;;-144.99;49.33;52199.44;5022389;28;20046;-70
2023/10/08 10:09:57;;;;;;;;;;;;;;;-144.99;48.68;52168.84;5029236;28;19960;-70
2023/10/08 10:12:26;;;;;;;;;;;;;;;-144.99;48.35;52150.53;5035991;28;20098;-71
2023/10/08 10:14:55;;;;;;;;;;;;;;;-144.99;48.04;52142.38;5024045;28;19975;-72
2023/10/08 10:17:22;;;;;;;;;;;;;;;-144.99;48.19;52138.28;5039721;28;19948;-71
2023/10/08 10:19:51;;;;;;;;;;;;;;;-144.99;47.94;52146.44;5043944;28;19953;-70
2023/10/08 10:22:28;;;;;;;;;;;;;;;-144.99;48.11;52162.75;5029822;28;19969;-70
2023/10/08 10:24:57;;;;;;;;;;;;;;;-144.99;48.54;52238.16;5027980;28;19987;-70
2023/10/08 10:27:25;;;;;;;;;;;;;;;-144.99;49.72;52213.69;5027629;28;19955;-72
2023/10/08 10:29:52;;;;;;;;;;;;;;;-144.99;49.93;52232.03;5028507;28;20328;-71
2023/10/08 10:32:19;;;;;;;;;;;;;;;-144.99;49.62;52158.66;5029357;28;19970;-70
2023/10/08 10:34:47;;;;;;;;;;;;;;;-144.99;48.75;52093.44;5036217;28;19949;-70
2023/10/08 10:37:20;;;;;;;;;;;;;;;-144.99;48.40;52052.69;5028922;28;19990;-71
2023/10/08 10:39:54;;;;;;;;;;;;;;;-144.99;48.40;52024.16;5032342;28;20412;-70
2023/10/08 10:42:22;;;;;;;;;;;;;;;-144.99;48.61;52101.59;5033282;28;19983;-70
2023/10/08 10:44:53;;;;;;;;;;;;;;;-144.99;48.84;52183.13;5029257;28;19969;-70
2023/10/08 10:47:42;;;;;;;;;;;;;;;-144.99;49.52;52221.84;5015956;28;19984;-71
2023/10/08 10:50:18;;;;;;;;;;;;;;;-144.99;51.00;52276.88;5017080;28;20297;-72
2023/10/08 10:52:53;;;;;;;;;;;;;;;-144.99;52.64;52309.50;5017988;28;20410;-71
2023/10/08 10:55:21;;;;;;;;;;;;;;;-144.99;51.74;52146.44;5016068;28;19947;-70
2023/10/08 10:57:56;;;;;;;;;;;;;;;-144.99;51.69;52195.34;5023156;28;19939;-69
2023/10/08 11:03:16;;;;;;;;;;;;;;;-144.99;50.34;52044.53;5015652;28;19955;-69
2023/10/08 11:05:47;;;;;;;;;;;;;;;-144.99;49.67;52044.53;5015840;28;20303;-70
2023/10/08 11:08:15;;;;;;;;;;;;;;;-144.99;49.15;52177.00;5029435;28;19958;-72
2023/10/08 11:10:49;;;;;;;;;;;;;;;-144.99;49.63;52026.19;5025432;28;19959;-70
2023/10/08 11:13:17;;;;;;;;;;;;;;;-144.99;49.07;52126.06;5031873;28;19981;-70
2023/10/08 11:15:49;;;;;;;;;;;;;;;-144.99;49.19;52113.84;5038032;28;20379;-70
2023/10/08 11:18:16;;;;;;;;;;;;;;;-144.99;49.36;52146.44;5032696;28;20362;-70
2023/10/08 11:20:44;;;;;;;;;;;;;;;-144.99;49.33;52203.50;5029002;28;19981;-70
2023/10/08 11:23:19;;;;;;;;;;;;;;;-144.99;49.52;52115.88;5034650;28;20308;-70
2023/10/08 11:25:59;;;;;;;;;;;;;;;-144.99;49.73;52150.53;5028138;28;20175;-70
2023/10/08 11:28:28;;;;;;;;;;;;;;;-144.99;50.50;52223.88;5020585;28;20047;-71
2023/10/08 11:30:57;;;;;;;;;;;;;;;-144.99;51.08;52209.63;4682032;28;10000324;-70
2023/10/08 11:33:23;;;;;;;;;;;;;;;-144.99;51.93;52293.19;5027893;28;19937;-70
2023/10/08 11:35:58;;;;;;;;;;;;;;;-144.99;52.19;52301.34;5024165;28;20032;-71
2023/10/08 11:38:27;;;;;;;;;;;;;;;-144.99;52.98;52319.69;5022730;28;19995;-70
2023/10/08 11:40:56;;;;;;;;;;;;;;;-144.99;53.82;52362.50;5023481;28;19965;-70
2023/10/08 11:43:22;;;;;;;;;;;;;;;-144.99;54.07;52289.13;5023490;28;19943;-71
2023/10/08 11:45:50;;;;;;;;;;;;;;;-144.99;54.03;52333.94;5015757;28;20034;-71
2023/10/08 11:48:25;;;;;;;;;;;;;;;-144.99;53.76;52297.25;5023049;28;20420;-71
2023/10/08 11:50:52;;;;;;;;;;;;;;;-144.99;53.52;52150.53;5024837;28;19980;-71
2023/10/08 11:53:19;;;;;;;;;;;;;;;-144.99;53.03;52156.63;5024493;28;20375;-71
2023/10/08 11:55:47;;;;;;;;;;;;;;;-144.99;51.38;52081.22;5024787;28;19955;-71
2023/10/08 11:58:17;;;;;;;;;;;;;;;-144.99;49.40;52020.09;5027597;28;19951;-70
2023/10/08 12:00:52;;;;;;;;;;;;;;;-144.99;48.82;52007.84;5028201;28;20034;-69
2023/10/08 12:03:20;;;;;;;;;;;;;;;-144.99;47.97;52048.63;5019873;28;19970;-70
2023/10/08 12:05:48;;;;;;;;;;;;;;;-144.99;47.94;52103.66;5016996;28;19993;-70
2023/10/08 12:08:16;;;;;;;;;;;;;;;-144.99;48.21;52093.44;5031126;28;19970;-70
2023/10/08 12:10:43;;;;;;;;;;;;;;;-144.99;49.55;52142.38;5021197;28;19964;-70
2023/10/08 12:13:10;;;;;;;;;;;;;;;-144.99;50.19;52134.22;5026807;28;19945;-69
2023/10/08 12:15:39;;;;;;;;;;;;;;;-144.99;51.23;52187.19;5027598;28;20385;-70
2023/10/08 12:18:15;;;;;;;;;;;;;;;-144.99;51.29;52162.75;5029597;28;20411;-70
2023/10/08 12:20:46;;;;;;;;;;;;;;;-144.99;50.74;52234.09;5020035;28;20084;-70
2023/10/08 12:23:19;;;;;;;;;;;;;;;-144.99;51.23;52270.78;5027095;28;19929;-70
2023/10/08 12:25:51;;;;;;;;;;;;;;;-144.99;52.26;52397.13;5027066;28;20014;-70
2023/10/08 12:28:18;;;;;;;;;;;;;;;-144.99;53.54;52370.63;5022830;28;19957;-69
2023/10/08 12:30:45;;;;;;;;;;;;;;;-144.99;54.19;52358.41;5028504;28;19957;-70
2023/10/08 12:33:15;;;;;;;;;;;;;;;-144.99;53.92;52386.94;5028997;28;20021;-70
2023/10/08 12:35:44;;;;;;;;;;;;;;;-144.99;54.16;52346.19;5028034;28;19943;-70
2023/10/08 12:38:10;;;;;;;;;;;;;;;-144.99;55.31;52407.31;5026355;28;19947;-70
2023/10/08 12:40:47;;;;;;;;;;;;;;;-144.99;56.14;52358.41;5027353;28;20446;-70
2023/10/08 12:43:16;;;;;;;;;;;;;;;-144.99;56.80;52411.41;5031142;28;19962;-70
2023/10/08 12:45:45;;;;;;;;;;;;;;;-144.99;56.55;52413.44;5034405;28;20627;-70
2023/10/08 12:48:13;;;;;;;;;;;;;;;-144.99;56.89;52419.56;5021064;28;20442;-72